sensor_id;sensor_type;location;lat;lon;timestamp;P1;durP1;ratioP1;P2;durP2;ratioP2
31680;SDS011;18281;51.364;9.566;2022-11-15T00:00:24;4.43;;;3.30;;
31680;SDS011;18281;51.364;9.566;2022-11-15T00:02:51;5.38;;;3.58;;
31680;SDS011;18281;51.364;9.566;2022-11-15T00:05:18;5.90;;;2.72;;
31680;SDS011;18281;51.364;9.566;2022-11-15T00:07:43;4.03;;;3.20;;
31680;SDS011;18281;51.364;9.566;2022-11-15T00:10:08;9.75;;;2.95;;
31680;SDS011;18281;51.364;9.566;2022-11-15T00:12:34;4.97;;;2.78;;
31680;SDS011;18281;51.364;9.566;2022-11-15T00:14:59;4.82;;;3.13;;
31680;SDS011;18281;51.364;9.566;2022-11-15T00:17:24;4.90;;;2.70;;
31680;SDS011;18281;51.364;9.566;2022-11-15T00:19:50;7.88;;;2.70;;
31680;SDS011;18281;51.364;9.566;2022-11-15T00:22:15;6.88;;;3.70;;
31680;SDS011;18281;51.364;9.566;2022-11-15T00:24:41;6.18;;;2.95;;
31680;SDS011;18281;51.364;9.566;2022-11-15T00:27:07;4.35;;;2.80;;
31680;SDS011;18281;51.364;9.566;2022-11-15T00:29:33;6.38;;;3.08;;
31680;SDS011;18281;51.364;9.566;2022-11-15T00:31:58;4.22;;;3.10;;
31680;SDS011;18281;51.364;9.566;2022-11-15T00:34:24;4.68;;;2.70;;
31680;SDS011;18281;51.364;9.566;2022-11-15T00:36:49;9.70;;;3.33;;
31680;SDS011;18281;51.364;9.566;2022-11-15T00:39:14;8.25;;;3.10;;
31680;SDS011;18281;51.364;9.566;2022-11-15T00:41:40;9.23;;;4.43;;
31680;SDS011;18281;51.364;9.566;2022-11-15T00:44:05;7.50;;;4.20;;
31680;SDS011;18281;51.364;9.566;2022-11-15T00:46:30;6.45;;;3.90;;
31680;SDS011;18281;51.364;9.566;2022-11-15T00:48:56;7.90;;;2.95;;
31680;SDS011;18281;51.364;9.566;2022-11-15T00:51:21;6.78;;;3.35;;
31680;SDS011;18281;51.364;9.566;2022-11-15T00:53:47;6.10;;;3.63;;
31680;SDS011;18281;51.364;9.566;2022-11-15T00:56:12;5.65;;;3.38;;
31680;SDS011;18281;51.364;9.566;2022-11-15T00:58:37;5.15;;;3.28;;
31680;SDS011;18281;51.364;9.566;2022-11-15T01:01:10;6.13;;;3.13;;
31680;SDS011;18281;51.364;9.566;2022-11-15T01:03:38;9.77;;;3.15;;
31680;SDS011;18281;51.364;9.566;2022-11-15T01:06:05;5.68;;;2.90;;
31680;SDS011;18281;51.364;9.566;2022-11-15T01:08:31;7.78;;;3.20;;
31680;SDS011;18281;51.364;9.566;2022-11-15T01:11:03;5.25;;;3.15;;
31680;SDS011;18281;51.364;9.566;2022-11-15T01:13:31;9.15;;;3.10;;
31680;SDS011;18281;51.364;9.566;2022-11-15T01:15:57;5.97;;;3.28;;
31680;SDS011;18281;51.364;9.566;2022-11-15T01:18:23;5.75;;;3.45;;
31680;SDS011;18281;51.364;9.566;2022-11-15T01:20:48;4.82;;;3.10;;
31680;SDS011;18281;51.364;9.566;2022-11-15T01:23:14;8.73;;;2.92;;
31680;SDS011;18281;51.364;9.566;2022-11-15T01:25:39;9.88;;;3.10;;
31680;SDS011;18281;51.364;9.566;2022-11-15T01:28:04;4.85;;;3.13;;
31680;SDS011;18281;51.364;9.566;2022-11-15T01:30:30;4.30;;;2.83;;
31680;SDS011;18281;51.364;9.566;2022-11-15T01:32:55;7.28;;;2.90;;
31680;SDS011;18281;51.364;9.566;2022-11-15T01:35:20;4.80;;;2.90;;
31680;SDS011;18281;51.364;9.566;2022-11-15T01:37:46;3.88;;;3.05;;
31680;SDS011;18281;51.364;9.566;2022-11-15T01:40:11;5.07;;;3.75;;
31680;SDS011;18281;51.364;9.566;2022-11-15T01:42:37;5.15;;;3.58;;
31680;SDS011;18281;51.364;9.566;2022-11-15T01:45:02;6.10;;;2.97;;
31680;SDS011;18281;51.364;9.566;2022-11-15T01:47:37;7.82;;;3.40;;
31680;SDS011;18281;51.364;9.566;2022-11-15T01:50:07;7.00;;;3.03;;
31680;SDS011;18281;51.364;9.566;2022-11-15T01:52:35;6.38;;;3.22;;
31680;SDS011;18281;51.364;9.566;2022-11-15T01:57:31;3.20;;;2.78;;
31680;SDS011;18281;51.364;9.566;2022-11-15T01:59:56;5.07;;;3.08;;
31680;SDS011;18281;51.364;9.566;2022-11-15T02:02:22;9.90;;;3.00;;
31680;SDS011;18281;51.364;9.566;2022-11-15T02:04:48;5.35;;;3.80;;
31680;SDS011;18281;51.364;9.566;2022-11-15T02:07:17;5.22;;;3.03;;
31680;SDS011;18281;51.364;9.566;2022-11-15T02:09:44;4.38;;;3.00;;
31680;SDS011;18281;51.364;9.566;2022-11-15T02:12:11;5.40;;;2.90;;
31680;SDS011;18281;51.364;9.566;2022-11-15T02:14:41;5.22;;;3.58;;
31680;SDS011;18281;51.364;9.566;2022-11-15T02:19:40;6.82;;;3.80;;
31680;SDS011;18281;51.364;9.566;2022-11-15T02:22:42;6.30;;;3.03;;
31680;SDS011;18281;51.364;9.566;2022-11-15T02:27:59;8.68;;;3.13;;
31680;SDS011;18281;51.364;9.566;2022-11-15T02:34:15;7.00;;;3.30;;
31680;SDS011;18281;51.364;9.566;2022-11-15T02:36:58;3.58;;;2.58;;
31680;SDS011;18281;51.364;9.566;2022-11-15T02:39:38;9.00;;;2.80;;
31680;SDS011;18281;51.364;9.566;2022-11-15T02:42:25;4.00;;;2.60;;
31680;SDS011;18281;51.364;9.566;2022-11-15T02:45:12;4.75;;;2.88;;
31680;SDS011;18281;51.364;9.566;2022-11-15T02:47:46;4.57;;;2.80;;
31680;SDS011;18281;51.364;9.566;2022-11-15T02:50:17;5.82;;;2.78;;
31680;SDS011;18281;51.364;9.566;2022-11-15T02:52:46;3.63;;;3.10;;
31680;SDS011;18281;51.364;9.566;2022-11-15T02:58:14;3.28;;;2.80;;
31680;SDS011;18281;51.364;9.566;2022-11-15T03:06:49;4.00;;;3.20;;
31680;SDS011;18281;51.364;9.566;2022-11-15T03:12:12;4.18;;;2.75;;
31680;SDS011;18281;51.364;9.566;2022-11-15T03:14:51;9.95;;;3.05;;
31680;SDS011;18281;51.364;9.566;2022-11-15T03:17:23;4.82;;;2.92;;
31680;SDS011;18281;51.364;9.566;2022-11-15T03:19:54;7.18;;;2.90;;
31680;SDS011;18281;51.364;9.566;2022-11-15T03:22:23;5.78;;;2.63;;
31680;SDS011;18281;51.364;9.566;2022-11-15T03:24:52;4.53;;;2.83;;
31680;SDS011;18281;51.364;9.566;2022-11-15T03:29:50;3.88;;;2.60;;
31680;SDS011;18281;51.364;9.566;2022-11-15T03:32:20;4.13;;;2.92;;
31680;SDS011;18281;51.364;9.566;2022-11-15T03:34:55;6.63;;;3.00;;
31680;SDS011;18281;51.364;9.566;2022-11-15T03:40:40;3.40;;;2.70;;
31680;SDS011;18281;51.364;9.566;2022-11-15T03:45:47;3.58;;;2.55;;
31680;SDS011;18281;51.364;9.566;2022-11-15T03:48:26;9.63;;;3.80;;
31680;SDS011;18281;51.364;9.566;2022-11-15T03:50:55;10.40;;;3.88;;
31680;SDS011;18281;51.364;9.566;2022-11-15T03:53:21;3.33;;;2.33;;
31680;SDS011;18281;51.364;9.566;2022-11-15T03:55:47;6.38;;;3.17;;
31680;SDS011;18281;51.364;9.566;2022-11-15T03:58:12;4.70;;;3.05;;
31680;SDS011;18281;51.364;9.566;2022-11-15T04:00:37;5.53;;;3.88;;
31680;SDS011;18281;51.364;9.566;2022-11-15T04:03:03;9.35;;;4.40;;
31680;SDS011;18281;51.364;9.566;2022-11-15T04:05:28;6.57;;;4.20;;
31680;SDS011;18281;51.364;9.566;2022-11-15T04:07:54;10.23;;;4.00;;
31680;SDS011;18281;51.364;9.566;2022-11-15T04:10:19;7.63;;;4.15;;
31680;SDS011;18281;51.364;9.566;2022-11-15T04:12:45;5.20;;;2.88;;
31680;SDS011;18281;51.364;9.566;2022-11-15T04:15:14;8.88;;;4.05;;
31680;SDS011;18281;51.364;9.566;2022-11-15T04:17:42;3.75;;;3.05;;
31680;SDS011;18281;51.364;9.566;2022-11-15T04:22:58;8.93;;;3.05;;
31680;SDS011;18281;51.364;9.566;2022-11-15T04:25:43;5.95;;;3.25;;
31680;SDS011;18281;51.364;9.566;2022-11-15T04:28:09;3.75;;;2.70;;
31680;SDS011;18281;51.364;9.566;2022-11-15T04:30:35;5.60;;;3.20;;
31680;SDS011;18281;51.364;9.566;2022-11-15T04:33:00;5.05;;;2.90;;
31680;SDS011;18281;51.364;9.566;2022-11-15T04:35:26;5.95;;;2.80;;
31680;SDS011;18281;51.364;9.566;2022-11-15T04:37:52;4.53;;;2.95;;
31680;SDS011;18281;51.364;9.566;2022-11-15T04:40:17;3.63;;;2.70;;
31680;SDS011;18281;51.364;9.566;2022-11-15T04:42:42;3.13;;;2.83;;
31680;SDS011;18281;51.364;9.566;2022-11-15T04:45:08;3.20;;;2.50;;
31680;SDS011;18281;51.364;9.566;2022-11-15T04:47:34;3.75;;;2.55;;
31680;SDS011;18281;51.364;9.566;2022-11-15T04:49:59;4.55;;;2.70;;
31680;SDS011;18281;51.364;9.566;2022-11-15T04:52:24;5.72;;;2.75;;
31680;SDS011;18281;51.364;9.566;2022-11-15T04:54:50;3.72;;;2.42;;
31680;SDS011;18281;51.364;9.566;2022-11-15T04:57:15;7.35;;;3.53;;
31680;SDS011;18281;51.364;9.566;2022-11-15T04:59:40;4.05;;;2.75;;
31680;SDS011;18281;51.364;9.566;2022-11-15T05:02:06;5.95;;;2.88;;
31680;SDS011;18281;51.364;9.566;2022-11-15T05:04:31;7.25;;;3.95;;
31680;SDS011;18281;51.364;9.566;2022-11-15T05:06:56;6.00;;;4.07;;
31680;SDS011;18281;51.364;9.566;2022-11-15T05:09:23;7.10;;;4.03;;
31680;SDS011;18281;51.364;9.566;2022-11-15T05:11:48;4.72;;;3.78;;
31680;SDS011;18281;51.364;9.566;2022-11-15T05:14:14;4.95;;;3.60;;
31680;SDS011;18281;51.364;9.566;2022-11-15T05:16:40;5.60;;;3.35;;
31680;SDS011;18281;51.364;9.566;2022-11-15T05:19:06;9.25;;;3.60;;
31680;SDS011;18281;51.364;9.566;2022-11-15T05:21:32;5.25;;;3.00;;
31680;SDS011;18281;51.364;9.566;2022-11-15T05:23:58;4.43;;;2.85;;
31680;SDS011;18281;51.364;9.566;2022-11-15T05:26:24;6.45;;;3.05;;
31680;SDS011;18281;51.364;9.566;2022-11-15T05:28:53;6.03;;;3.35;;
31680;SDS011;18281;51.364;9.566;2022-11-15T05:31:20;6.80;;;3.28;;
31680;SDS011;18281;51.364;9.566;2022-11-15T05:33:46;5.00;;;3.13;;
31680;SDS011;18281;51.364;9.566;2022-11-15T05:36:29;7.07;;;3.10;;
31680;SDS011;18281;51.364;9.566;2022-11-15T05:38:59;8.30;;;3.00;;
31680;SDS011;18281;51.364;9.566;2022-11-15T05:41:27;5.80;;;3.17;;
31680;SDS011;18281;51.364;9.566;2022-11-15T05:43:57;4.72;;;3.13;;
31680;SDS011;18281;51.364;9.566;2022-11-15T05:46:24;7.90;;;3.90;;
31680;SDS011;18281;51.364;9.566;2022-11-15T05:48:50;6.78;;;3.33;;
31680;SDS011;18281;51.364;9.566;2022-11-15T05:51:17;6.13;;;3.60;;
31680;SDS011;18281;51.364;9.566;2022-11-15T05:53:45;5.93;;;3.00;;
31680;SDS011;18281;51.364;9.566;2022-11-15T05:56:12;5.45;;;3.63;;
31680;SDS011;18281;51.364;9.566;2022-11-15T05:58:38;6.60;;;3.53;;
31680;SDS011;18281;51.364;9.566;2022-11-15T06:01:03;8.65;;;3.58;;
31680;SDS011;18281;51.364;9.566;2022-11-15T06:03:29;8.68;;;3.35;;
31680;SDS011;18281;51.364;9.566;2022-11-15T06:05:55;7.43;;;3.40;;
31680;SDS011;18281;51.364;9.566;2022-11-15T06:08:21;9.30;;;3.80;;
31680;SDS011;18281;51.364;9.566;2022-11-15T06:10:47;10.25;;;4.68;;
31680;SDS011;18281;51.364;9.566;2022-11-15T06:13:12;13.00;;;7.00;;
31680;SDS011;18281;51.364;9.566;2022-11-15T06:15:37;48.33;;;19.90;;
31680;SDS011;18281;51.364;9.566;2022-11-15T06:18:03;76.35;;;28.58;;
31680;SDS011;18281;51.364;9.566;2022-11-15T06:20:28;58.42;;;22.48;;
31680;SDS011;18281;51.364;9.566;2022-11-15T06:23:02;53.67;;;22.45;;
31680;SDS011;18281;51.364;9.566;2022-11-15T06:25:28;45.55;;;19.88;;
31680;SDS011;18281;51.364;9.566;2022-11-15T06:27:55;38.67;;;13.90;;
31680;SDS011;18281;51.364;9.566;2022-11-15T06:30:22;20.00;;;10.27;;
31680;SDS011;18281;51.364;9.566;2022-11-15T06:32:48;16.52;;;8.15;;
31680;SDS011;18281;51.364;9.566;2022-11-15T06:35:13;16.35;;;7.68;;
31680;SDS011;18281;51.364;9.566;2022-11-15T06:37:40;19.70;;;7.95;;
31680;SDS011;18281;51.364;9.566;2022-11-15T06:40:06;18.42;;;8.27;;
31680;SDS011;18281;51.364;9.566;2022-11-15T06:42:32;13.23;;;6.43;;
31680;SDS011;18281;51.364;9.566;2022-11-15T06:44:58;9.63;;;5.57;;
31680;SDS011;18281;51.364;9.566;2022-11-15T06:47:24;11.75;;;5.00;;
31680;SDS011;18281;51.364;9.566;2022-11-15T06:49:49;11.63;;;4.93;;
31680;SDS011;18281;51.364;9.566;2022-11-15T06:52:14;5.18;;;3.42;;
31680;SDS011;18281;51.364;9.566;2022-11-15T06:54:40;4.57;;;3.08;;
31680;SDS011;18281;51.364;9.566;2022-11-15T06:57:05;5.63;;;3.20;;
31680;SDS011;18281;51.364;9.566;2022-11-15T06:59:30;4.40;;;2.67;;
31680;SDS011;18281;51.364;9.566;2022-11-15T07:01:56;4.15;;;2.80;;
31680;SDS011;18281;51.364;9.566;2022-11-15T07:04:21;5.60;;;3.10;;
31680;SDS011;18281;51.364;9.566;2022-11-15T07:06:46;8.30;;;3.67;;
31680;SDS011;18281;51.364;9.566;2022-11-15T07:09:13;6.43;;;3.60;;
31680;SDS011;18281;51.364;9.566;2022-11-15T07:11:39;6.15;;;3.75;;
31680;SDS011;18281;51.364;9.566;2022-11-15T07:14:05;5.53;;;3.30;;
31680;SDS011;18281;51.364;9.566;2022-11-15T07:16:30;5.82;;;3.60;;
31680;SDS011;18281;51.364;9.566;2022-11-15T07:18:55;5.53;;;3.60;;
31680;SDS011;18281;51.364;9.566;2022-11-15T07:21:21;9.55;;;4.28;;
31680;SDS011;18281;51.364;9.566;2022-11-15T07:23:46;6.72;;;4.68;;
31680;SDS011;18281;51.364;9.566;2022-11-15T07:26:11;11.70;;;4.05;;
31680;SDS011;18281;51.364;9.566;2022-11-15T07:28:37;7.70;;;2.58;;
31680;SDS011;18281;51.364;9.566;2022-11-15T07:31:06;4.35;;;2.40;;
31680;SDS011;18281;51.364;9.566;2022-11-15T07:33:32;5.88;;;2.90;;
31680;SDS011;18281;51.364;9.566;2022-11-15T07:35:59;6.28;;;3.40;;
31680;SDS011;18281;51.364;9.566;2022-11-15T07:38:26;6.13;;;3.30;;
31680;SDS011;18281;51.364;9.566;2022-11-15T07:40:59;4.50;;;2.90;;
31680;SDS011;18281;51.364;9.566;2022-11-15T07:43:25;7.88;;;3.05;;
31680;SDS011;18281;51.364;9.566;2022-11-15T07:45:54;6.22;;;3.50;;
31680;SDS011;18281;51.364;9.566;2022-11-15T07:48:20;6.15;;;3.55;;
31680;SDS011;18281;51.364;9.566;2022-11-15T07:50:46;5.93;;;3.63;;
31680;SDS011;18281;51.364;9.566;2022-11-15T07:53:11;3.50;;;2.90;;
31680;SDS011;18281;51.364;9.566;2022-11-15T07:55:36;4.47;;;3.45;;
31680;SDS011;18281;51.364;9.566;2022-11-15T07:58:06;8.07;;;3.63;;
31680;SDS011;18281;51.364;9.566;2022-11-15T08:00:33;5.20;;;3.33;;
31680;SDS011;18281;51.364;9.566;2022-11-15T08:07:57;7.90;;;5.45;;
31680;SDS011;18281;51.364;9.566;2022-11-15T08:10:22;7.57;;;4.78;;
31680;SDS011;18281;51.364;9.566;2022-11-15T08:12:47;8.98;;;4.88;;
31680;SDS011;18281;51.364;9.566;2022-11-15T08:15:13;7.30;;;4.85;;
31680;SDS011;18281;51.364;9.566;2022-11-15T08:17:38;11.27;;;4.65;;
31680;SDS011;18281;51.364;9.566;2022-11-15T08:20:04;14.35;;;5.50;;
31680;SDS011;18281;51.364;9.566;2022-11-15T08:22:29;9.45;;;5.15;;
31680;SDS011;18281;51.364;9.566;2022-11-15T08:24:55;7.20;;;4.55;;
31680;SDS011;18281;51.364;9.566;2022-11-15T08:27:20;10.75;;;5.38;;
31680;SDS011;18281;51.364;9.566;2022-11-15T08:29:45;6.38;;;4.60;;
31680;SDS011;18281;51.364;9.566;2022-11-15T08:32:13;8.68;;;5.10;;
31680;SDS011;18281;51.364;9.566;2022-11-15T08:34:38;7.95;;;5.30;;
31680;SDS011;18281;51.364;9.566;2022-11-15T08:37:04;8.48;;;5.68;;
31680;SDS011;18281;51.364;9.566;2022-11-15T08:39:30;10.30;;;7.20;;
31680;SDS011;18281;51.364;9.566;2022-11-15T08:41:55;8.52;;;5.60;;
31680;SDS011;18281;51.364;9.566;2022-11-15T08:44:21;7.20;;;5.28;;
31680;SDS011;18281;51.364;9.566;2022-11-15T08:46:46;8.77;;;5.50;;
31680;SDS011;18281;51.364;9.566;2022-11-15T08:49:11;10.35;;;5.25;;
31680;SDS011;18281;51.364;9.566;2022-11-15T08:51:37;8.40;;;5.43;;
31680;SDS011;18281;51.364;9.566;2022-11-15T08:54:02;6.13;;;4.97;;
31680;SDS011;18281;51.364;9.566;2022-11-15T08:56:28;6.00;;;4.50;;
31680;SDS011;18281;51.364;9.566;2022-11-15T08:58:53;6.22;;;4.43;;
31680;SDS011;18281;51.364;9.566;2022-11-15T09:01:19;6.90;;;3.65;;
31680;SDS011;18281;51.364;9.566;2022-11-15T09:03:45;4.75;;;3.60;;
31680;SDS011;18281;51.364;9.566;2022-11-15T09:06:11;8.45;;;3.80;;
31680;SDS011;18281;51.364;9.566;2022-11-15T09:08:37;7.68;;;3.45;;
31680;SDS011;18281;51.364;9.566;2022-11-15T09:11:03;4.90;;;3.95;;
31680;SDS011;18281;51.364;9.566;2022-11-15T09:15:58;11.98;;;5.93;;
31680;SDS011;18281;51.364;9.566;2022-11-15T09:18:24;10.07;;;5.68;;
31680;SDS011;18281;51.364;9.566;2022-11-15T09:20:50;6.68;;;5.07;;
31680;SDS011;18281;51.364;9.566;2022-11-15T09:23:16;9.68;;;5.88;;
31680;SDS011;18281;51.364;9.566;2022-11-15T09:25:41;7.28;;;5.35;;
31680;SDS011;18281;51.364;9.566;2022-11-15T09:28:07;7.30;;;5.60;;
31680;SDS011;18281;51.364;9.566;2022-11-15T09:30:32;10.13;;;5.50;;
31680;SDS011;18281;51.364;9.566;2022-11-15T09:32:57;7.22;;;5.05;;
31680;SDS011;18281;51.364;9.566;2022-11-15T09:35:23;7.50;;;5.45;;
31680;SDS011;18281;51.364;9.566;2022-11-15T09:37:48;5.15;;;4.53;;
31680;SDS011;18281;51.364;9.566;2022-11-15T09:40:14;9.10;;;4.47;;
31680;SDS011;18281;51.364;9.566;2022-11-15T09:45:55;7.25;;;5.18;;
31680;SDS011;18281;51.364;9.566;2022-11-15T09:51:19;9.02;;;5.10;;
31680;SDS011;18281;51.364;9.566;2022-11-15T09:53:58;7.13;;;5.25;;
31680;SDS011;18281;51.364;9.566;2022-11-15T09:56:50;7.63;;;4.95;;
31680;SDS011;18281;51.364;9.566;2022-11-15T09:59:23;7.85;;;4.20;;
31680;SDS011;18281;51.364;9.566;2022-11-15T10:04:49;5.60;;;4.05;;
31680;SDS011;18281;51.364;9.566;2022-11-15T10:07:19;4.60;;;3.83;;
31680;SDS011;18281;51.364;9.566;2022-11-15T10:09:55;5.70;;;3.30;;
31680;SDS011;18281;51.364;9.566;2022-11-15T10:12:28;8.00;;;3.53;;
31680;SDS011;18281;51.364;9.566;2022-11-15T10:15:05;5.70;;;3.42;;
31680;SDS011;18281;51.364;9.566;2022-11-15T10:20:49;6.65;;;3.90;;
31680;SDS011;18281;51.364;9.566;2022-11-15T10:23:18;5.80;;;4.07;;
31680;SDS011;18281;51.364;9.566;2022-11-15T10:25:52;10.93;;;5.43;;
31680;SDS011;18281;51.364;9.566;2022-11-15T10:30:47;14.15;;;7.25;;
31680;SDS011;18281;51.364;9.566;2022-11-15T10:46:32;5.07;;;3.45;;
31680;SDS011;18281;51.364;9.566;2022-11-15T10:49:13;7.45;;;4.00;;
31680;SDS011;18281;51.364;9.566;2022-11-15T10:51:45;5.00;;;3.25;;
31680;SDS011;18281;51.364;9.566;2022-11-15T10:54:21;5.13;;;2.88;;
31680;SDS011;18281;51.364;9.566;2022-11-15T10:57:20;4.95;;;3.33;;
31680;SDS011;18281;51.364;9.566;2022-11-15T10:59:49;3.38;;;2.80;;
31680;SDS011;18281;51.364;9.566;2022-11-15T11:02:36;4.95;;;2.92;;
31680;SDS011;18281;51.364;9.566;2022-11-15T11:05:05;4.45;;;2.92;;
31680;SDS011;18281;51.364;9.566;2022-11-15T11:07:55;4.60;;;3.03;;
31680;SDS011;18281;51.364;9.566;2022-11-15T11:10:28;4.80;;;3.38;;
31680;SDS011;18281;51.364;9.566;2022-11-15T11:12:54;5.07;;;3.58;;
31680;SDS011;18281;51.364;9.566;2022-11-15T11:15:19;8.65;;;3.70;;
31680;SDS011;18281;51.364;9.566;2022-11-15T11:18:07;8.10;;;3.38;;
31680;SDS011;18281;51.364;9.566;2022-11-15T11:20:41;7.32;;;2.80;;
31680;SDS011;18281;51.364;9.566;2022-11-15T11:28:40;5.20;;;2.70;;
31680;SDS011;18281;51.364;9.566;2022-11-15T11:34:05;4.45;;;2.60;;
31680;SDS011;18281;51.364;9.566;2022-11-15T11:36:44;4.18;;;2.38;;
31680;SDS011;18281;51.364;9.566;2022-11-15T11:47:21;4.55;;;2.30;;
31680;SDS011;18281;51.364;9.566;2022-11-15T11:52:47;5.30;;;2.40;;
31680;SDS011;18281;51.364;9.566;2022-11-15T11:55:40;5.03;;;2.20;;
31680;SDS011;18281;51.364;9.566;2022-11-15T11:58:16;5.53;;;2.80;;
31680;SDS011;18281;51.364;9.566;2022-11-15T12:01:05;4.38;;;2.65;;
31680;SDS011;18281;51.364;9.566;2022-11-15T12:04:01;4.88;;;2.15;;
31680;SDS011;18281;51.364;9.566;2022-11-15T12:06:46;4.75;;;2.72;;
31680;SDS011;18281;51.364;9.566;2022-11-15T12:09:27;3.72;;;2.22;;
31680;SDS011;18281;51.364;9.566;2022-11-15T12:15:01;3.83;;;2.13;;
31680;SDS011;18281;51.364;9.566;2022-11-15T12:17:31;4.40;;;3.25;;
31680;SDS011;18281;51.364;9.566;2022-11-15T12:20:02;5.57;;;3.17;;
31680;SDS011;18281;51.364;9.566;2022-11-15T12:31:03;3.75;;;2.40;;
31680;SDS011;18281;51.364;9.566;2022-11-15T12:36:29;6.68;;;3.75;;
31680;SDS011;18281;51.364;9.566;2022-11-15T12:38:56;3.05;;;2.30;;
31680;SDS011;18281;51.364;9.566;2022-11-15T12:41:23;4.22;;;2.40;;
31680;SDS011;18281;51.364;9.566;2022-11-15T12:43:56;6.13;;;2.95;;
31680;SDS011;18281;51.364;9.566;2022-11-15T12:55:28;2.50;;;2.13;;
31680;SDS011;18281;51.364;9.566;2022-11-15T13:17:43;4.18;;;2.30;;
31680;SDS011;18281;51.364;9.566;2022-11-15T13:22:52;8.35;;;3.00;;
31680;SDS011;18281;51.364;9.566;2022-11-15T13:28:24;2.25;;;2.08;;
31680;SDS011;18281;51.364;9.566;2022-11-15T13:30:59;2.53;;;1.90;;
31680;SDS011;18281;51.364;9.566;2022-11-15T13:33:34;3.70;;;2.30;;
31680;SDS011;18281;51.364;9.566;2022-11-15T13:36:15;3.78;;;2.15;;
31680;SDS011;18281;51.364;9.566;2022-11-15T13:38:53;4.00;;;2.47;;
31680;SDS011;18281;51.364;9.566;2022-11-15T13:41:49;4.68;;;2.05;;
31680;SDS011;18281;51.364;9.566;2022-11-15T13:44:20;3.65;;;2.42;;
31680;SDS011;18281;51.364;9.566;2022-11-15T13:46:47;3.75;;;2.33;;
31680;SDS011;18281;51.364;9.566;2022-11-15T13:49:13;4.78;;;2.00;;
31680;SDS011;18281;51.364;9.566;2022-11-15T13:51:48;4.20;;;1.88;;
31680;SDS011;18281;51.364;9.566;2022-11-15T13:54:20;1.75;;;1.60;;
31680;SDS011;18281;51.364;9.566;2022-11-15T13:57:29;2.25;;;1.42;;
31680;SDS011;18281;51.364;9.566;2022-11-15T14:02:27;2.92;;;1.77;;
31680;SDS011;18281;51.364;9.566;2022-11-15T14:04:59;4.30;;;1.63;;
31680;SDS011;18281;51.364;9.566;2022-11-15T14:07:59;2.63;;;1.65;;
31680;SDS011;18281;51.364;9.566;2022-11-15T14:10:29;6.30;;;1.83;;
31680;SDS011;18281;51.364;9.566;2022-11-15T14:13:01;5.47;;;2.05;;
31680;SDS011;18281;51.364;9.566;2022-11-15T14:18:00;1.60;;;1.50;;
31680;SDS011;18281;51.364;9.566;2022-11-15T14:23:03;3.08;;;2.00;;
31680;SDS011;18281;51.364;9.566;2022-11-15T14:26:04;3.80;;;2.10;;
31680;SDS011;18281;51.364;9.566;2022-11-15T14:28:31;3.63;;;1.88;;
31680;SDS011;18281;51.364;9.566;2022-11-15T14:30:58;3.75;;;1.92;;
31680;SDS011;18281;51.364;9.566;2022-11-15T14:33:27;3.88;;;1.98;;
31680;SDS011;18281;51.364;9.566;2022-11-15T14:35:56;6.15;;;3.10;;
31680;SDS011;18281;51.364;9.566;2022-11-15T14:38:23;3.85;;;2.83;;
31680;SDS011;18281;51.364;9.566;2022-11-15T14:40:50;4.75;;;2.22;;
31680;SDS011;18281;51.364;9.566;2022-11-15T14:43:15;4.22;;;2.20;;
31680;SDS011;18281;51.364;9.566;2022-11-15T14:45:41;6.88;;;2.72;;
31680;SDS011;18281;51.364;9.566;2022-11-15T14:48:07;3.22;;;2.30;;
31680;SDS011;18281;51.364;9.566;2022-11-15T14:50:33;4.78;;;2.33;;
31680;SDS011;18281;51.364;9.566;2022-11-15T14:52:59;2.05;;;1.77;;
31680;SDS011;18281;51.364;9.566;2022-11-15T14:55:26;4.93;;;2.22;;
31680;SDS011;18281;51.364;9.566;2022-11-15T14:57:52;2.22;;;2.03;;
31680;SDS011;18281;51.364;9.566;2022-11-15T15:00:18;4.93;;;2.17;;
31680;SDS011;18281;51.364;9.566;2022-11-15T15:02:44;3.78;;;2.40;;
31680;SDS011;18281;51.364;9.566;2022-11-15T15:07:44;2.45;;;2.00;;
31680;SDS011;18281;51.364;9.566;2022-11-15T15:10:10;2.63;;;2.13;;
31680;SDS011;18281;51.364;9.566;2022-11-15T15:12:36;3.58;;;2.13;;
31680;SDS011;18281;51.364;9.566;2022-11-15T15:15:01;4.22;;;2.28;;
31680;SDS011;18281;51.364;9.566;2022-11-15T15:17:26;2.50;;;2.22;;
31680;SDS011;18281;51.364;9.566;2022-11-15T15:19:52;3.22;;;2.00;;
31680;SDS011;18281;51.364;9.566;2022-11-15T15:22:18;4.40;;;2.15;;
31680;SDS011;18281;51.364;9.566;2022-11-15T15:24:46;3.28;;;2.30;;
31680;SDS011;18281;51.364;9.566;2022-11-15T15:27:12;3.17;;;2.15;;
31680;SDS011;18281;51.364;9.566;2022-11-15T15:29:37;4.55;;;2.30;;
31680;SDS011;18281;51.364;9.566;2022-11-15T15:32:03;3.78;;;2.20;;
31680;SDS011;18281;51.364;9.566;2022-11-15T15:34:29;7.78;;;2.30;;
31680;SDS011;18281;51.364;9.566;2022-11-15T15:39:51;2.30;;;1.92;;
31680;SDS011;18281;51.364;9.566;2022-11-15T15:42:18;2.60;;;2.40;;
31680;SDS011;18281;51.364;9.566;2022-11-15T15:44:44;2.17;;;1.98;;
31680;SDS011;18281;51.364;9.566;2022-11-15T15:47:13;4.10;;;2.08;;
31680;SDS011;18281;51.364;9.566;2022-11-15T15:49:47;4.78;;;2.22;;
31680;SDS011;18281;51.364;9.566;2022-11-15T15:52:13;2.75;;;2.22;;
31680;SDS011;18281;51.364;9.566;2022-11-15T15:54:39;2.22;;;2.00;;
31680;SDS011;18281;51.364;9.566;2022-11-15T15:57:05;2.63;;;2.20;;
31680;SDS011;18281;51.364;9.566;2022-11-15T15:59:31;6.78;;;2.60;;
31680;SDS011;18281;51.364;9.566;2022-11-15T16:01:56;5.75;;;3.45;;
31680;SDS011;18281;51.364;9.566;2022-11-15T16:04:22;6.32;;;3.22;;
31680;SDS011;18281;51.364;9.566;2022-11-15T16:06:47;3.63;;;2.40;;
31680;SDS011;18281;51.364;9.566;2022-11-15T16:09:15;4.18;;;2.80;;
31680;SDS011;18281;51.364;9.566;2022-11-15T16:11:43;5.07;;;3.10;;
31680;SDS011;18281;51.364;9.566;2022-11-15T16:14:09;3.53;;;2.90;;
31680;SDS011;18281;51.364;9.566;2022-11-15T16:16:35;5.05;;;2.50;;
31680;SDS011;18281;51.364;9.566;2022-11-15T16:19:01;2.95;;;2.45;;
31680;SDS011;18281;51.364;9.566;2022-11-15T16:21:26;2.67;;;1.98;;
31680;SDS011;18281;51.364;9.566;2022-11-15T16:23:52;6.30;;;3.70;;
31680;SDS011;18281;51.364;9.566;2022-11-15T16:26:20;4.85;;;2.30;;
31680;SDS011;18281;51.364;9.566;2022-11-15T16:28:48;4.60;;;2.40;;
31680;SDS011;18281;51.364;9.566;2022-11-15T16:31:14;3.65;;;2.38;;
31680;SDS011;18281;51.364;9.566;2022-11-15T16:33:43;3.00;;;2.20;;
31680;SDS011;18281;51.364;9.566;2022-11-15T16:36:22;3.53;;;2.17;;
31680;SDS011;18281;51.364;9.566;2022-11-15T16:38:48;2.83;;;2.17;;
31680;SDS011;18281;51.364;9.566;2022-11-15T16:41:15;7.13;;;5.32;;
31680;SDS011;18281;51.364;9.566;2022-11-15T16:43:43;4.68;;;2.92;;
31680;SDS011;18281;51.364;9.566;2022-11-15T16:48:47;3.83;;;2.22;;
31680;SDS011;18281;51.364;9.566;2022-11-15T16:51:13;4.53;;;2.33;;
31680;SDS011;18281;51.364;9.566;2022-11-15T16:53:40;3.17;;;2.25;;
31680;SDS011;18281;51.364;9.566;2022-11-15T16:56:13;3.13;;;2.50;;
31680;SDS011;18281;51.364;9.566;2022-11-15T16:58:39;3.47;;;2.53;;
31680;SDS011;18281;51.364;9.566;2022-11-15T17:01:04;3.03;;;2.28;;
31680;SDS011;18281;51.364;9.566;2022-11-15T17:03:29;4.78;;;2.70;;
31680;SDS011;18281;51.364;9.566;2022-11-15T17:05:57;4.22;;;2.70;;
31680;SDS011;18281;51.364;9.566;2022-11-15T17:08:26;3.40;;;2.47;;
31680;SDS011;18281;51.364;9.566;2022-11-15T17:10:52;3.78;;;2.70;;
31680;SDS011;18281;51.364;9.566;2022-11-15T17:13:17;5.45;;;2.80;;
31680;SDS011;18281;51.364;9.566;2022-11-15T17:15:43;6.18;;;2.72;;
31680;SDS011;18281;51.364;9.566;2022-11-15T17:18:11;4.18;;;2.72;;
31680;SDS011;18281;51.364;9.566;2022-11-15T17:20:37;5.25;;;2.95;;
31680;SDS011;18281;51.364;9.566;2022-11-15T17:23:04;4.03;;;2.97;;
31680;SDS011;18281;51.364;9.566;2022-11-15T17:25:36;3.65;;;2.95;;
31680;SDS011;18281;51.364;9.566;2022-11-15T17:28:01;3.22;;;2.63;;